Time;durP1;ratioP1;P1;durP2;ratioP2;P2;SDS_P1;SDS_P2;PMS_P1;PMS_P2;Temp;Humidity;BMP_temperature;BMP_pressure;BME280_temperature;BME280_humidity;BME280_pressure;Samples;Min_cycle;Max_cycle;Signal;HPM_P1;HPM_P2
2022/12/21 00:01:37;;;;;;;24.38;12.30;;;7.30;99.90;;;;;;5057441;28;20392;-69
2022/12/21 00:04:04;;;;;;;23.83;12.73;;;7.40;99.90;;;;;;5056905;28;20021;-69
2022/12/21 00:06:33;;;;;;;27.63;13.90;;;7.30;99.90;;;;;;5057132;28;20025;-69
2022/12/21 00:08:59;;;;;;;37.00;16.23;;;7.30;99.90;;;;;;5056848;28;20035;-69
2022/12/21 00:11:26;;;;;;;26.45;12.52;;;7.30;99.90;;;;;;5057010;28;20036;-69
2022/12/21 00:13:54;;;;;;;24.67;12.18;;;7.40;99.90;;;;;;5056675;28;20028;-69
2022/12/21 00:16:22;;;;;;;24.48;12.63;;;7.40;99.90;;;;;;5056159;28;20522;-69
2022/12/21 00:18:47;;;;;;;30.25;14.38;;;7.40;99.90;;;;;;5056853;28;20033;-70
2022/12/21 00:21:16;;;;;;;42.33;17.77;;;7.30;99.90;;;;;;5055531;28;20025;-70
2022/12/21 00:23:43;;;;;;;39.10;17.67;;;7.30;99.90;;;;;;5056879;28;20084;-70
2022/12/21 00:26:11;;;;;;;23.77;12.70;;;7.30;99.90;;;;;;5056144;28;20106;-71
2022/12/21 00:28:36;;;;;;;41.88;17.58;;;7.40;99.90;;;;;;5055615;28;20025;-72
2022/12/21 00:31:11;;;;;;;32.45;13.32;;;7.40;99.90;;;;;;5055026;28;20027;-72
2022/12/21 00:33:51;;;;;;;42.28;16.40;;;7.50;99.90;;;;;;5056313;28;20106;-72
2022/12/21 00:36:19;;;;;;;22.95;11.38;;;7.50;99.90;;;;;;5056456;28;20043;-71
2022/12/21 00:38:48;;;;;;;18.95;11.77;;;7.50;99.90;;;;;;5055246;28;20028;-71
2022/12/21 00:41:17;;;;;;;19.40;10.13;;;7.60;99.90;;;;;;5056098;28;20365;-71
2022/12/21 00:43:43;;;;;;;34.33;14.40;;;7.60;99.90;;;;;;5055109;28;20120;-71
2022/12/21 00:46:18;;;;;;;24.85;12.32;;;7.60;99.90;;;;;;5055970;28;20035;-71
2022/12/21 00:48:44;;;;;;;31.58;14.18;;;7.60;99.90;;;;;;5054832;28;20120;-72
2022/12/21 00:51:13;;;;;;;30.75;13.48;;;7.60;99.90;;;;;;5055425;28;20056;-72
2022/12/21 00:53:38;;;;;;;39.13;15.75;;;7.60;99.90;;;;;;5054569;28;20025;-72
2022/12/21 00:56:06;;;;;;;37.30;15.82;;;7.60;99.90;;;;;;5054565;28;20028;-72
2022/12/21 00:58:33;;;;;;;22.88;11.48;;;7.50;99.90;;;;;;5055741;28;20036;-72
2022/12/21 01:01:00;;;;;;;28.95;13.85;;;7.60;99.90;;;;;;5055711;28;20543;-72
2022/12/21 01:03:26;;;;;;;40.63;15.80;;;7.60;99.90;;;;;;5055593;28;20037;-72
2022/12/21 01:05:53;;;;;;;22.30;11.10;;;7.60;99.90;;;;;;5054159;28;20396;-72
2022/12/21 01:08:20;;;;;;;20.52;11.10;;;7.60;99.90;;;;;;5054432;28;20025;-72
2022/12/21 01:10:46;;;;;;;41.40;16.65;;;7.60;99.90;;;;;;5055274;28;20033;-72
2022/12/21 01:13:12;;;;;;;46.78;17.55;;;7.70;99.90;;;;;;5054228;28;20036;-72
2022/12/21 01:15:42;;;;;;;41.33;17.70;;;7.70;99.90;;;;;;5055455;28;20020;-72
2022/12/21 01:18:09;;;;;;;28.33;12.65;;;7.60;99.90;;;;;;5055334;28;20079;-72
2022/12/21 01:20:43;;;;;;;43.45;17.45;;;7.60;99.90;;;;;;5054163;28;20117;-71
2022/12/21 01:23:09;;;;;;;30.40;12.52;;;7.70;99.90;;;;;;5054740;28;20036;-72
2022/12/21 01:25:35;;;;;;;22.92;11.50;;;7.80;99.90;;;;;;5054080;28;20025;-71
2022/12/21 01:28:00;;;;;;;27.83;14.55;;;7.80;99.90;;;;;;5053977;28;20036;-71
2022/12/21 01:30:26;;;;;;;42.75;17.50;;;7.80;99.90;;;;;;5055206;28;20087;-71
2022/12/21 01:32:51;;;;;;;27.08;12.77;;;7.80;99.90;;;;;;5053992;28;20029;-71
2022/12/21 01:35:17;;;;;;;46.30;17.73;;;7.80;99.90;;;;;;5054196;28;20032;-72
2022/12/21 01:37:42;;;;;;;51.22;18.23;;;7.80;99.90;;;;;;5054015;28;20021;-71
2022/12/21 01:40:10;;;;;;;27.63;13.55;;;7.80;99.90;;;;;;5053884;28;20052;-71
2022/12/21 01:42:35;;;;;;;46.00;17.60;;;7.60;99.90;;;;;;5054323;28;20074;-71
2022/12/21 01:45:22;;;;;;;52.17;20.00;;;7.60;99.90;;;;;;5054455;28;20025;-71
2022/12/21 01:48:12;;;;;;;51.75;19.23;;;7.50;99.90;;;;;;5055104;28;20060;-71
2022/12/21 01:50:48;;;;;;;67.40;21.45;;;7.50;99.90;;;;;;5055188;28;20025;-71
2022/12/21 01:53:21;;;;;;;60.03;20.77;;;7.40;99.90;;;;;;5053397;28;20487;-71
2022/12/21 01:55:50;;;;;;;49.00;19.55;;;7.40;99.90;;;;;;5054341;28;20021;-71
2022/12/21 01:58:18;;;;;;;75.45;23.85;;;7.40;99.90;;;;;;5053664;28;20025;-71
2022/12/21 02:00:44;;;;;;;78.93;25.05;;;7.50;99.90;;;;;;5053231;28;20021;-70
2022/12/21 02:03:15;;;;;;;86.22;26.05;;;7.50;99.90;;;;;;5053407;28;20025;-71
2022/12/21 02:05:48;;;;;;;84.95;26.70;;;7.60;99.90;;;;;;5053244;28;20021;-71
2022/12/21 02:08:14;;;;;;;55.78;21.85;;;7.60;99.90;;;;;;5053742;28;20056;-71
2022/12/21 02:10:40;;;;;;;70.93;23.23;;;7.60;99.90;;;;;;5053149;28;20158;-71
2022/12/21 02:13:09;;;;;;;36.53;18.10;;;7.60;99.90;;;;;;5053143;28;20025;-71
2022/12/21 02:15:48;;;;;;;70.57;24.83;;;7.50;99.90;;;;;;5053048;28;20024;-71
2022/12/21 02:18:19;;;;;;;53.55;20.90;;;7.50;99.90;;;;;;5052206;28;20032;-71
2022/12/21 02:20:45;;;;;;;53.47;21.67;;;7.50;99.90;;;;;;5053571;28;20017;-71
2022/12/21 02:23:23;;;;;;;46.67;18.38;;;7.50;99.90;;;;;;5054355;28;20028;-71
2022/12/21 02:26:12;;;;;;;63.83;23.65;;;7.50;99.90;;;;;;5053122;28;20029;-70
2022/12/21 02:28:58;;;;;;;40.67;19.45;;;7.60;99.90;;;;;;5054176;28;20036;-71
2022/12/21 02:31:52;;;;;;;85.82;26.10;;;7.50;99.90;;;;;;5054451;28;20039;-71
2022/12/21 02:34:29;;;;;;;75.07;24.75;;;7.50;99.90;;;;;;5052570;28;20036;-71
2022/12/21 02:37:16;;;;;;;67.10;23.92;;;7.50;99.90;;;;;;5052617;28;20028;-71
2022/12/21 02:40:02;;;;;;;93.63;29.52;;;7.40;99.90;;;;;;5053830;28;20021;-71
2022/12/21 02:46:01;;;;;;;102.15;29.52;;;7.50;99.90;;;;;;5054084;28;20056;-71
2022/12/21 02:48:38;;;;;;;94.75;27.73;;;7.60;99.90;;;;;;5053737;28;20029;-71
2022/12/21 02:51:07;;;;;;;86.07;27.30;;;7.50;99.90;;;;;;5052760;28;20029;-71
2022/12/21 02:53:36;;;;;;;115.00;30.88;;;7.60;99.90;;;;;;5053274;28;20035;-71
2022/12/21 02:56:02;;;;;;;102.30;32.45;;;7.60;99.90;;;;;;5053828;28;20033;-71
2022/12/21 02:58:27;;;;;;;101.22;31.75;;;7.60;99.90;;;;;;5053159;28;20087;-71
2022/12/21 03:00:53;;;;;;;108.25;31.85;;;7.70;99.90;;;;;;5053596;28;20079;-71
2022/12/21 03:03:49;;;;;;;114.63;31.70;;;7.70;99.90;;;;;;5052603;28;20029;-71
2022/12/21 03:06:27;;;;;;;86.43;28.08;;;7.80;99.90;;;;;;5052500;28;20111;-71
2022/12/21 03:09:02;;;;;;;106.30;30.08;;;7.80;99.90;;;;;;5053491;28;20029;-71
2022/12/21 03:11:56;;;;;;;100.53;31.00;;;7.80;99.90;;;;;;5052276;28;20029;-71
2022/12/21 03:14:51;;;;;;;94.68;28.65;;;7.80;99.90;;;;;;5033370;28;20047;-71
2022/12/21 03:17:42;;;;;;;117.45;32.60;;;7.80;99.90;;;;;;5053358;28;20032;-71
2022/12/21 03:20:32;;;;;;;106.97;30.40;;;7.80;99.90;;;;;;5052015;28;20028;-71
2022/12/21 03:23:04;;;;;;;113.72;31.02;;;7.80;99.90;;;;;;5053227;28;20029;-71
2022/12/21 03:25:41;;;;;;;113.85;31.67;;;7.90;99.90;;;;;;5053259;28;20025;-71
2022/12/21 03:28:13;;;;;;;94.70;28.10;;;7.90;99.90;;;;;;5052750;28;20120;-71
2022/12/21 03:30:43;;;;;;;;;;;7.90;99.90;;;;;;5053845;28;20017;-70
2022/12/21 03:33:14;;;;;;;106.55;28.88;;;7.90;99.90;;;;;;5051776;28;19944;-70
2022/12/21 03:35:51;;;;;;;119.85;32.58;;;7.80;99.90;;;;;;5051637;28;20074;-70
2022/12/21 03:38:45;;;;;;;105.97;30.50;;;7.80;99.90;;;;;;5052091;28;20029;-70
2022/12/21 03:41:28;;;;;;;98.03;30.45;;;7.80;99.90;;;;;;5052403;28;20032;-70
2022/12/21 03:43:57;;;;;;;93.05;27.52;;;7.80;99.90;;;;;;5051720;28;20031;-70
2022/12/21 03:46:27;;;;;;;126.60;33.67;;;7.80;99.90;;;;;;5052983;28;20155;-70
2022/12/21 03:49:07;;;;;;;117.55;32.13;;;7.80;99.90;;;;;;5053555;28;20029;-70
2022/12/21 03:51:52;;;;;;;107.25;29.95;;;7.80;99.90;;;;;;5051547;28;20392;-70
2022/12/21 03:54:42;;;;;;;115.30;30.67;;;7.70;99.90;;;;;;5052755;28;20052;-70
2022/12/21 03:57:09;;;;;;;109.97;30.15;;;7.70;99.90;;;;;;5053278;28;20021;-70
2022/12/21 03:59:40;;;;;;;109.22;31.23;;;7.70;99.90;;;;;;5051619;28;20074;-70
2022/12/21 04:02:16;;;;;;;101.80;29.20;;;7.60;99.90;;;;;;5051761;28;20116;-70
2022/12/21 04:04:57;;;;;;;97.57;26.58;;;7.60;99.90;;;;;;5052739;28;20025;-70
2022/12/21 04:07:25;;;;;;;77.88;25.98;;;7.60;99.90;;;;;;5052427;28;20028;-70
2022/12/21 04:09:57;;;;;;;122.97;32.17;;;7.60;99.90;;;;;;5051625;28;20039;-70
2022/12/21 04:12:39;;;;;;;89.63;27.67;;;7.60;99.90;;;;;;5051397;28;20116;-70
2022/12/21 04:15:15;;;;;;;106.97;30.00;;;7.60;99.90;;;;;;5051790;28;20028;-70
2022/12/21 04:17:43;;;;;;;98.25;29.58;;;7.60;99.90;;;;;;5052951;28;20083;-70
2022/12/21 04:20:12;;;;;;;105.45;29.55;;;7.50;99.90;;;;;;5053003;28;20087;-70
2022/12/21 04:28:18;;;;;;;118.03;29.17;;;7.60;99.90;;;;;;5052894;28;20055;-70
2022/12/21 04:30:45;;;;;;;102.70;28.73;;;7.70;99.90;;;;;;5052826;28;20387;-70
2022/12/21 04:33:13;;;;;;;97.38;25.98;;;7.60;99.90;;;;;;5052344;28;20115;-70
2022/12/21 04:37:30;;;;;;;79.03;25.00;;;7.70;99.90;;;;;;5052574;28;20073;-70
2022/12/21 04:38:26;;;;;;;61.50;21.33;;;7.50;99.90;;;;;;5052415;28;20025;-70
2022/12/21 04:40:53;;;;;;;48.20;18.95;;;7.40;99.90;;;;;;5053128;28;20028;-70
2022/12/21 04:43:20;;;;;;;42.72;17.95;;;7.40;99.90;;;;;;5054837;28;20120;-70
2022/12/21 04:45:46;;;;;;;32.63;15.75;;;7.40;99.90;;;;;;5054673;28;20108;-70
2022/12/21 04:48:12;;;;;;;31.55;15.73;;;7.50;99.90;;;;;;5054766;28;20028;-70
2022/12/21 04:50:38;;;;;;;32.42;15.55;;;7.60;99.90;;;;;;5054888;28;20503;-70
2022/12/21 04:53:04;;;;;;;32.35;15.65;;;7.60;99.90;;;;;;5054623;28;20075;-70
2022/12/21 04:55:29;;;;;;;27.27;14.20;;;7.50;99.90;;;;;;5054863;28;20025;-70
2022/12/21 04:57:55;;;;;;;34.70;15.48;;;7.50;99.90;;;;;;5054858;28;20025;-70
2022/12/21 05:00:21;;;;;;;29.13;14.82;;;7.60;99.90;;;;;;5055718;28;20071;-71
2022/12/21 05:03:12;;;;;;;30.48;14.10;;;7.60;99.90;;;;;;5055357;28;20124;-70
2022/12/21 05:05:38;;;;;;;32.22;15.05;;;7.70;99.90;;;;;;5054722;28;20477;-70
2022/12/21 05:08:03;;;;;;;25.10;14.02;;;7.70;99.90;;;;;;5055736;28;20063;-70
2022/12/21 05:10:29;;;;;;;28.27;14.43;;;7.70;99.90;;;;;;5055502;28;20040;-70
2022/12/21 05:12:55;;;;;;;28.63;14.23;;;7.70;99.90;;;;;;5054276;28;20074;-70
2022/12/21 05:15:20;;;;;;;28.10;14.50;;;7.70;99.90;;;;;;5054129;28;20066;-70
2022/12/21 05:17:46;;;;;;;26.27;13.65;;;7.70;99.90;;;;;;5054328;28;20035;-70
2022/12/21 05:20:11;;;;;;;29.55;14.68;;;7.70;99.90;;;;;;5056273;28;20025;-70
2022/12/21 05:22:37;;;;;;;34.67;15.18;;;7.70;99.90;;;;;;5054123;28;20501;-70
2022/12/21 05:25:03;;;;;;;29.27;14.32;;;7.70;99.90;;;;;;5054401;28;20086;-70
2022/12/21 05:27:28;;;;;;;33.78;15.80;;;7.60;99.90;;;;;;5054298;28;20029;-70
2022/12/21 05:29:54;;;;;;;36.55;16.63;;;7.60;99.90;;;;;;5055186;28;20032;-70
2022/12/21 05:32:19;;;;;;;34.10;15.48;;;7.50;99.90;;;;;;5053725;28;20036;-70
2022/12/21 05:34:45;;;;;;;37.60;16.55;;;7.50;99.90;;;;;;5053810;28;20028;-70
2022/12/21 05:37:10;;;;;;;31.77;15.57;;;7.50;99.90;;;;;;5053803;28;20032;-70
2022/12/21 05:39:36;;;;;;;35.25;16.40;;;7.60;99.90;;;;;;5054956;28;20036;-70
2022/12/21 05:42:02;;;;;;;40.70;18.02;;;7.50;99.90;;;;;;5055041;28;20029;-70
2022/12/21 05:44:28;;;;;;;41.67;17.13;;;7.60;99.90;;;;;;5054835;28;20083;-70
2022/12/21 05:46:54;;;;;;;41.72;17.50;;;7.60;99.90;;;;;;5055264;28;20033;-70
2022/12/21 05:49:19;;;;;;;40.33;17.88;;;7.60;99.90;;;;;;5054146;28;20029;-70
2022/12/21 05:51:49;;;;;;;40.10;17.58;;;7.70;99.90;;;;;;5054800;28;20063;-70
2022/12/21 05:54:15;;;;;;;45.47;16.75;;;7.60;99.90;;;;;;5054585;28;20021;-70
2022/12/21 05:56:42;;;;;;;41.88;17.45;;;7.60;99.90;;;;;;5053555;28;20112;-70
2022/12/21 05:59:08;;;;;;;45.60;18.10;;;7.60;99.90;;;;;;5055038;28;20036;-70
2022/12/21 06:01:34;;;;;;;48.13;18.75;;;7.70;99.90;;;;;;5054536;28;20028;-70
2022/12/21 06:03:59;;;;;;;48.33;18.63;;;7.70;99.90;;;;;;5053902;28;20028;-70
2022/12/21 06:06:25;;;;;;;42.15;17.17;;;7.60;99.90;;;;;;5054891;28;20025;-70
2022/12/21 06:08:51;;;;;;;51.00;18.60;;;7.50;99.90;;;;;;5054160;28;20044;-70
2022/12/21 06:11:20;;;;;;;56.65;18.23;;;7.50;99.90;;;;;;5054817;28;20103;-70
2022/12/21 06:13:46;;;;;;;54.58;18.02;;;7.50;99.90;;;;;;5052894;28;20040;-70
2022/12/21 06:16:14;;;;;;;57.63;21.52;;;7.50;99.90;;;;;;5052934;28;20165;-70
2022/12/21 06:18:40;;;;;;;63.13;20.35;;;7.60;99.90;;;;;;5054664;28;20086;-70
2022/12/21 06:21:08;;;;;;;56.45;17.67;;;7.50;99.90;;;;;;5054321;28;20060;-70
2022/12/21 06:23:33;;;;;;;54.58;17.88;;;7.50;99.90;;;;;;5052836;28;20392;-70
2022/12/21 06:26:01;;;;;;;52.92;18.30;;;7.50;99.90;;;;;;5055243;22;20038;-72
2022/12/21 06:28:27;;;;;;;56.50;19.33;;;7.50;99.90;;;;;;4994108;28;20141;-72
2022/12/21 06:30:54;;;;;;;64.18;19.75;;;7.60;99.90;;;;;;4994673;28;20049;-73
2022/12/21 06:33:21;;;;;;;63.30;19.55;;;7.50;99.90;;;;;;4993881;28;20047;-73
2022/12/21 06:35:47;;;;;;;63.92;19.73;;;7.50;99.90;;;;;;4994040;28;20022;-74
2022/12/21 06:38:13;;;;;;;74.72;20.35;;;7.60;99.90;;;;;;4993670;28;20026;-73
2022/12/21 06:40:38;;;;;;;56.90;19.33;;;7.60;99.90;;;;;;4993487;28;20113;-73
2022/12/21 06:43:04;;;;;;;72.88;20.70;;;7.60;99.90;;;;;;4994683;28;20089;-73
2022/12/21 06:45:30;;;;;;;81.38;21.38;;;7.60;99.90;;;;;;4993341;28;20086;-72
2022/12/21 06:47:55;;;;;;;67.35;20.60;;;7.60;99.90;;;;;;4994947;28;20456;-73
2022/12/21 06:50:22;;;;;;;66.03;20.05;;;7.60;99.90;;;;;;4993484;28;20114;-73
2022/12/21 06:52:48;;;;;;;72.32;19.05;;;7.60;99.90;;;;;;4994879;28;20053;-73
2022/12/21 06:55:14;;;;;;;73.07;17.58;;;7.60;99.90;;;;;;4993262;28;20026;-72
2022/12/21 06:57:39;;;;;;;76.75;19.95;;;7.50;99.90;;;;;;4993659;28;20461;-73
2022/12/21 07:00:05;;;;;;;84.78;19.83;;;7.40;99.90;;;;;;4994572;28;20054;-73
2022/12/21 07:02:31;;;;;;;65.18;19.17;;;7.50;99.90;;;;;;4992920;28;20088;-73
2022/12/21 07:04:57;;;;;;;75.25;20.58;;;7.40;99.90;;;;;;4993885;28;20022;-73
2022/12/21 07:07:23;;;;;;;78.97;20.50;;;7.40;99.90;;;;;;4993235;28;20022;-72
2022/12/21 07:09:48;;;;;;;85.10;20.90;;;7.40;99.90;;;;;;4993126;28;20045;-72
2022/12/21 07:12:14;;;;;;;75.88;20.25;;;7.40;99.90;;;;;;4993508;28;20031;-72
2022/12/21 07:14:39;;;;;;;65.45;17.73;;;7.40;99.90;;;;;;4993874;28;20022;-72
2022/12/21 07:17:05;;;;;;;102.32;23.58;;;7.50;99.90;;;;;;4994143;28;20110;-72
2022/12/21 07:19:31;;;;;;;91.18;24.27;;;7.60;99.90;;;;;;4994106;28;20027;-72
2022/12/21 07:21:56;;;;;;;84.63;21.25;;;7.60;99.90;;;;;;4992924;28;20073;-72
2022/12/21 07:24:22;;;;;;;45.65;16.20;;;7.70;99.90;;;;;;4992779;28;20030;-72
2022/12/21 07:26:47;;;;;;;85.95;22.58;;;7.80;99.90;;;;;;4993431;28;20088;-73
2022/12/21 07:29:13;;;;;;;71.15;20.42;;;7.90;99.90;;;;;;4992904;28;20022;-73
2022/12/21 07:31:39;;;;;;;52.85;17.70;;;7.70;99.90;;;;;;4992854;28;20029;-73
2022/12/21 07:34:04;;;;;;;63.28;20.80;;;7.70;99.90;;;;;;4993832;28;20077;-73
2022/12/21 07:36:30;;;;;;;76.05;21.00;;;7.80;99.90;;;;;;4993253;28;20030;-74
2022/12/21 07:38:56;;;;;;;86.90;20.95;;;7.70;99.90;;;;;;4994067;28;20084;-74
2022/12/21 07:41:21;;;;;;;79.78;19.38;;;7.60;99.90;;;;;;4992833;28;20019;-73
2022/12/21 07:43:49;;;;;;;90.00;20.05;;;7.60;99.90;;;;;;4992867;28;20033;-73
2022/12/21 07:46:16;;;;;;;86.07;21.05;;;7.60;99.90;;;;;;4993496;28;20049;-73
2022/12/21 07:48:41;;;;;;;86.90;19.75;;;7.60;99.90;;;;;;4993538;28;20033;-73
2022/12/21 07:51:07;;;;;;;64.75;18.40;;;7.60;99.90;;;;;;4992706;28;20027;-73
2022/12/21 07:53:33;;;;;;;88.65;20.98;;;7.70;99.90;;;;;;4994746;28;20058;-73
2022/12/21 07:56:00;;;;;;;81.10;21.80;;;7.70;99.90;;;;;;5013559;28;20014;-73
2022/12/21 07:58:26;;;;;;;93.18;23.02;;;7.70;99.90;;;;;;5012668;28;20113;-73
2022/12/21 08:00:51;;;;;;;92.28;22.50;;;7.70;99.90;;;;;;5012318;28;20037;-73
2022/12/21 08:03:17;;;;;;;78.05;19.45;;;7.70;99.90;;;;;;5012361;28;20026;-73
2022/12/21 08:05:43;;;;;;;69.15;20.80;;;7.70;99.90;;;;;;5013326;28;20018;-73
2022/12/21 08:08:08;;;;;;;78.28;20.73;;;7.60;99.90;;;;;;5013696;28;20053;-73
2022/12/21 08:10:34;;;;;;;81.90;21.17;;;7.70;99.90;;;;;;5013636;28;20030;-73
2022/12/21 08:13:00;;;;;;;64.43;18.77;;;7.60;99.90;;;;;;5012325;28;20030;-73
2022/12/21 08:15:25;;;;;;;79.55;20.67;;;7.60;99.90;;;;;;5014667;28;20026;-72
2022/12/21 08:17:51;;;;;;;50.25;16.83;;;7.60;99.90;;;;;;5015923;28;20018;-73
2022/12/21 08:20:18;;;;;;;72.80;19.48;;;7.60;99.90;;;;;;5017397;28;20075;-73
2022/12/21 08:22:43;;;;;;;68.43;19.15;;;7.60;99.90;;;;;;5016243;28;20099;-73
2022/12/21 08:25:09;;;;;;;71.22;20.42;;;7.60;99.90;;;;;;5016526;28;20101;-72
2022/12/21 08:27:34;;;;;;;67.88;20.10;;;7.70;99.90;;;;;;5015505;28;20033;-73
2022/12/21 08:30:00;;;;;;;68.40;18.90;;;7.60;99.90;;;;;;5015979;28;20034;-70
2022/12/21 08:32:25;;;;;;;74.35;20.25;;;7.70;99.90;;;;;;5015335;28;20022;-70
2022/12/21 08:34:51;;;;;;;62.78;19.00;;;7.70;99.90;;;;;;5015360;28;20030;-71
2022/12/21 08:37:17;;;;;;;70.40;19.23;;;7.70;99.90;;;;;;5016008;28;20076;-73
2022/12/21 08:39:42;;;;;;;75.03;19.60;;;7.80;99.90;;;;;;5015879;28;20081;-72
2022/12/21 08:42:08;;;;;;;61.13;19.50;;;7.90;99.90;;;;;;5015481;28;20116;-72
2022/12/21 08:44:33;;;;;;;75.60;20.17;;;7.90;99.90;;;;;;5016057;28;20030;-72
2022/12/21 08:46:59;;;;;;;84.70;24.23;;;7.90;99.90;;;;;;5015036;28;20030;-71
2022/12/21 08:49:24;;;;;;;92.60;25.45;;;7.90;99.90;;;;;;5015361;28;20088;-71
2022/12/21 08:51:50;;;;;;;107.57;25.83;;;8.00;99.90;;;;;;5015294;28;20469;-72
2022/12/21 08:54:15;;;;;;;83.95;23.75;;;8.10;99.90;;;;;;5014833;28;20025;-72
2022/12/21 08:56:41;;;;;;;79.28;21.38;;;8.10;99.90;;;;;;5015160;28;20025;-70
2022/12/21 08:59:08;;;;;;;105.35;25.92;;;8.20;99.90;;;;;;5015260;28;20088;-70
2022/12/21 09:01:34;;;;;;;104.93;25.80;;;8.30;99.90;;;;;;5014779;28;20393;-72
2022/12/21 09:04:00;;;;;;;86.82;22.80;;;8.30;99.90;;;;;;5015154;28;20030;-70
2022/12/21 09:06:25;;;;;;;92.60;22.25;;;8.30;99.90;;;;;;5014984;28;20025;-72
2022/12/21 09:08:51;;;;;;;117.75;25.58;;;8.30;99.90;;;;;;5014723;28;20025;-70
2022/12/21 09:11:19;;;;;;;87.32;22.60;;;8.30;99.90;;;;;;5014642;28;20028;-69
2022/12/21 09:13:45;;;;;;;121.22;25.52;;;8.30;99.90;;;;;;5015396;28;20029;-72
2022/12/21 09:16:23;;;;;;;135.20;26.65;;;8.30;99.90;;;;;;5014856;28;20018;-70
2022/12/21 09:18:50;;;;;;;108.88;26.42;;;8.30;99.90;;;;;;5014522;28;20480;-71
2022/12/21 09:21:18;;;;;;;95.07;24.63;;;8.40;99.90;;;;;;5014479;28;20025;-72
2022/12/21 09:23:43;;;;;;;107.10;24.02;;;8.40;99.90;;;;;;5014307;28;20030;-72
2022/12/21 09:26:10;;;;;;;138.57;28.23;;;8.40;99.90;;;;;;5013899;28;20046;-72
2022/12/21 09:28:36;;;;;;;95.10;23.17;;;8.50;99.90;;;;;;5014248;28;20469;-72
2022/12/21 09:31:06;;;;;;;123.05;26.42;;;8.50;99.90;;;;;;5014258;28;20022;-72
2022/12/21 09:33:32;;;;;;;46.78;16.48;;;8.60;99.90;;;;;;5015406;28;20101;-72
2022/12/21 09:35:57;;;;;;;57.65;19.00;;;8.70;99.90;;;;;;5015259;28;20605;-72
2022/12/21 09:38:23;;;;;;;51.08;17.42;;;8.80;99.90;;;;;;5015593;28;20021;-72
2022/12/21 09:40:48;;;;;;;85.85;23.33;;;8.80;99.90;;;;;;5015368;28;20026;-72
2022/12/21 09:43:40;;;;;;;60.05;22.58;;;8.80;99.90;;;;;;5014009;28;20060;-72
2022/12/21 09:46:14;;;;;;;87.72;25.92;;;8.70;99.90;;;;;;5013971;28;20030;-72
2022/12/21 09:48:49;;;;;;;102.78;29.02;;;8.70;99.90;;;;;;5013846;28;20033;-71
2022/12/21 09:51:19;;;;;;;95.20;25.10;;;8.60;99.90;;;;;;5015147;28;20026;-72
2022/12/21 09:53:58;;;;;;;98.15;26.85;;;8.60;99.90;;;;;;5013699;28;20057;-72
2022/12/21 09:56:26;;;;;;;100.15;26.70;;;8.60;99.90;;;;;;5013703;28;20026;-72
2022/12/21 09:58:53;;;;;;;90.18;26.27;;;8.60;99.90;;;;;;5014170;28;20033;-72
2022/12/21 10:01:28;;;;;;;97.82;24.63;;;8.60;99.90;;;;;;5015235;28;20049;-72
2022/12/21 10:04:25;;;;;;;97.20;26.80;;;8.60;99.90;;;;;;5013679;28;20068;-72
2022/12/21 10:07:15;;;;;;;93.10;26.40;;;8.60;99.90;;;;;;5013549;28;20026;-72
2022/12/21 10:10:02;;;;;;;94.30;25.63;;;8.60;99.90;;;;;;5013864;28;20029;-72
2022/12/21 10:13:05;;;;;;;110.15;27.42;;;8.60;99.90;;;;;;5014025;28;20026;-72
2022/12/21 10:15:55;;;;;;;134.27;30.75;;;8.60;99.90;;;;;;5014930;28;20026;-72
2022/12/21 10:19:01;;;;;;;123.55;28.25;;;8.60;99.90;;;;;;5014373;28;20022;-72
2022/12/21 10:21:35;;;;;;;106.07;28.08;;;8.70;99.90;;;;;;5012334;28;20196;-72
2022/12/21 10:24:04;;;;;;;150.93;31.88;;;8.80;99.90;;;;;;5013300;28;20022;-72
2022/12/21 10:26:33;;;;;;;111.60;28.98;;;8.80;99.90;;;;;;5013475;28;20034;-72
2022/12/21 10:29:06;;;;;;;125.95;30.75;;;8.80;99.90;;;;;;5014601;28;20034;-72
2022/12/21 10:31:44;;;;;;;129.10;32.42;;;8.80;99.90;;;;;;5013385;28;20030;-72
2022/12/21 10:34:23;;;;;;;101.40;27.10;;;8.80;99.90;;;;;;5014512;28;20044;-72
2022/12/21 10:36:58;;;;;;;125.53;30.67;;;8.90;99.90;;;;;;5013468;28;20044;-72
2022/12/21 10:39:24;;;;;;;117.05;26.60;;;8.90;99.90;;;;;;5013933;28;20022;-72
2022/12/21 10:42:23;;;;;;;79.65;23.60;;;9.00;99.90;;;;;;5014304;28;20022;-72
2022/12/21 10:44:50;;;;;;;67.30;20.60;;;9.10;99.90;;;;;;4990538;28;20042;-72
2022/12/21 10:47:19;;;;;;;64.75;22.48;;;9.10;99.90;;;;;;5012915;28;20018;-73
2022/12/21 10:50:15;;;;;;;101.53;26.15;;;9.20;99.90;;;;;;5013519;28;20030;-73
2022/12/21 10:52:43;;;;;;;80.30;22.67;;;9.10;99.90;;;;;;5014106;28;20108;-73
2022/12/21 10:55:17;;;;;;;74.57;23.05;;;9.00;99.90;;;;;;5014226;28;20165;-72
2022/12/21 10:57:49;;;;;;;102.13;28.50;;;9.10;99.90;;;;;;5014204;28;20151;-72
2022/12/21 11:00:32;;;;;;;108.03;28.67;;;9.20;99.90;;;;;;5013777;28;20022;-72
2022/12/21 11:03:00;;;;;;;110.30;32.67;;;9.40;99.90;;;;;;5014010;28;20041;-72
2022/12/21 11:05:28;;;;;;;111.60;36.33;;;9.60;99.90;;;;;;5012873;28;20038;-71
2022/12/21 11:07:53;;;;;;;98.95;34.38;;;9.60;99.90;;;;;;5013057;28;20029;-72
2022/12/21 11:10:28;;;;;;;120.90;35.65;;;9.60;99.90;;;;;;5013984;28;20030;-72
2022/12/21 11:12:54;;;;;;;122.97;34.03;;;9.60;99.90;;;;;;5013915;28;20025;-72
2022/12/21 11:15:23;;;;;;;132.52;35.55;;;9.50;99.90;;;;;;5013282;28;20030;-72
2022/12/21 11:17:48;;;;;;;140.13;38.92;;;9.50;99.90;;;;;;5013695;28;20041;-72
2022/12/21 11:20:22;;;;;;;112.15;33.92;;;9.60;99.90;;;;;;5013136;28;20084;-72
2022/12/21 11:22:51;;;;;;;101.40;30.10;;;9.60;99.90;;;;;;5013823;28;20081;-72
2022/12/21 11:25:28;;;;;;;110.97;30.60;;;9.50;99.90;;;;;;5012203;28;20030;-72
2022/12/21 11:28:01;;;;;;;80.97;25.27;;;9.50;99.90;;;;;;5014327;28;20033;-72
2022/12/21 11:30:38;;;;;;;96.30;27.83;;;9.50;99.90;;;;;;5013019;28;20109;-72
2022/12/21 11:33:04;;;;;;;102.47;27.23;;;9.60;99.90;;;;;;5013335;28;20030;-72
2022/12/21 11:35:34;;;;;;;93.70;27.77;;;9.70;99.90;;;;;;5012945;28;20018;-72
2022/12/21 11:38:09;;;;;;;87.63;26.52;;;9.80;99.90;;;;;;5013652;28;20072;-72
2022/12/21 11:40:35;;;;;;;90.97;26.42;;;9.90;99.90;;;;;;5012408;28;20022;-72
2022/12/21 11:43:00;;;;;;;85.85;24.83;;;9.90;99.90;;;;;;5012347;28;20026;-72
2022/12/21 11:46:00;;;;;;;98.15;28.15;;;9.90;99.90;;;;;;5012258;28;20026;-72
2022/12/21 11:48:55;;;;;;;91.88;25.95;;;10.10;99.90;;;;;;5013601;28;20026;-72
2022/12/21 11:51:42;;;;;;;75.63;23.98;;;10.20;99.90;;;;;;5017589;28;20030;-72
2022/12/21 11:54:33;;;;;;;62.03;21.77;;;10.30;99.90;;;;;;5016937;28;20381;-72
2022/12/21 11:57:33;;;;;;;81.90;25.67;;;10.40;99.90;;;;;;4976689;28;20034;-72
2022/12/21 12:00:07;;;;;;;85.05;27.40;;;10.70;99.90;;;;;;5017719;28;20660;-72
2022/12/21 12:02:57;;;;;;;77.45;25.58;;;10.90;99.90;;;;;;5017364;28;20026;-72
2022/12/21 12:05:54;;;;;;;81.30;24.70;;;10.90;99.90;;;;;;5017240;28;20050;-72
2022/12/21 12:08:40;;;;;;;30.38;13.63;;;10.90;99.90;;;;;;5016001;28;20040;-72
2022/12/21 12:11:11;;;;;;;46.13;17.50;;;11.00;99.90;;;;;;5016924;28;20018;-72
2022/12/21 12:14:09;;;;;;;41.17;16.45;;;11.10;99.90;;;;;;5016186;28;20030;-72
2022/12/21 12:17:14;;;;;;;14.70;7.53;;;11.10;99.90;;;;;;4941282;29;20066;-72
2022/12/21 12:20:00;;;;;;;13.75;6.25;;;11.30;99.90;;;;;;4946492;29;20066;-72
2022/12/21 12:22:57;;;;;;;8.00;4.68;;;11.40;99.90;;;;;;4940525;29;20031;-72
2022/12/21 12:25:39;;;;;;;8.40;5.07;;;11.70;99.90;;;;;;4940068;29;20086;-72
2022/12/21 12:28:33;;;;;;;3.97;2.28;;;12.00;99.90;;;;;;4940994;29;20039;-73
2022/12/21 12:31:22;;;;;;;1.73;1.40;;;12.10;99.90;;;;;;4940229;29;20502;-72
2022/12/21 12:34:22;;;;;;;1.88;1.42;;;12.20;99.90;;;;;;4940582;29;20035;-72
2022/12/21 12:36:50;;;;;;;2.83;1.40;;;12.40;99.90;;;;;;4940051;29;20038;-71
2022/12/21 12:39:38;;;;;;;3.13;1.67;;;12.50;99.90;;;;;;4940150;29;20479;-71
2022/12/21 12:42:11;;;;;;;3.58;1.40;;;12.60;99.90;;;;;;4940087;29;20058;-72
2022/12/21 12:44:55;;;;;;;1.10;0.77;;;12.70;99.90;;;;;;4956351;29;20039;-72
2022/12/21 12:47:45;;;;;;;1.65;1.17;;;12.80;99.90;;;;;;4956118;29;20117;-72
2022/12/21 12:50:29;;;;;;;0.95;0.60;;;12.80;99.90;;;;;;4940217;29;20035;-72
2022/12/21 12:53:09;;;;;;;2.10;0.90;;;13.00;99.90;;;;;;4999839;28;20034;-70
2022/12/21 12:56:00;;;;;;;2.75;0.85;;;13.10;99.90;;;;;;5015711;28;20018;-70
2022/12/21 12:58:48;;;;;;;2.33;1.00;;;13.30;99.90;;;;;;5015731;28;20029;-70
2022/12/21 13:01:44;;;;;;;1.30;0.95;;;13.30;99.90;;;;;;5015450;28;20050;-70
2022/12/21 13:04:21;;;;;;;0.80;0.60;;;13.30;99.90;;;;;;5004302;28;20041;-70
2022/12/21 13:06:56;;;;;;;1.73;1.00;;;13.50;99.90;;;;;;5015929;28;20030;-72
2022/12/21 13:09:28;;;;;;;1.92;1.05;;;13.60;99.90;;;;;;5015789;28;20034;-73